createdAt,value
2023-04-16T00:00:46.894Z,3.28
2023-04-16T00:01:47.013Z,3.36
2023-04-16T00:02:47.184Z,3.41
2023-04-16T00:03:47.289Z,3.38
2023-04-16T00:04:47.076Z,3.36
2023-04-16T00:05:47.022Z,3.29
2023-04-16T00:06:47.024Z,3.41
2023-04-16T00:07:47.016Z,3.41
2023-04-16T00:08:47.014Z,3.30
2023-04-16T00:09:47.001Z,3.31
2023-04-16T00:10:47.001Z,3.29
2023-04-16T00:11:47.244Z,3.30
2023-04-16T00:12:46.992Z,3.33
2023-04-16T00:13:46.992Z,3.23
2023-04-16T00:14:47.061Z,3.25
2023-04-16T00:15:47.113Z,3.21
2023-04-16T00:16:47.203Z,3.17
2023-04-16T00:17:47.281Z,3.11
2023-04-16T00:18:47.320Z,3.18
2023-04-16T00:19:47.336Z,3.17
2023-04-16T00:20:47.391Z,3.14
2023-04-16T00:21:47.441Z,3.14
2023-04-16T00:22:47.500Z,3.20
2023-04-16T00:23:47.619Z,3.17
2023-04-16T00:24:47.634Z,3.18
2023-04-16T00:25:47.692Z,3.19
2023-04-16T00:26:47.760Z,3.13
2023-04-16T00:27:47.828Z,3.10
2023-04-16T00:28:47.900Z,3.06
2023-04-16T00:29:47.958Z,3.09
2023-04-16T00:30:48.075Z,3.06
2023-04-16T00:31:48.088Z,3.08
2023-04-16T00:32:48.229Z,3.00
2023-04-16T00:33:48.201Z,2.98
2023-04-16T00:34:48.245Z,2.97
2023-04-16T00:35:48.310Z,3.05
2023-04-16T00:36:48.358Z,3.03
2023-04-16T00:37:48.407Z,3.04
2023-04-16T00:38:48.458Z,2.95
2023-04-16T00:39:48.509Z,2.98
2023-04-16T00:40:48.548Z,2.97
2023-04-16T00:41:48.591Z,2.96
2023-04-16T00:42:48.594Z,2.95
2023-04-16T00:43:48.616Z,3.00
2023-04-16T00:44:48.663Z,3.01
2023-04-16T00:45:48.788Z,2.99
2023-04-16T00:46:48.795Z,2.94
2023-04-16T00:47:48.825Z,2.93
2023-04-16T00:48:48.835Z,2.94
2023-04-16T00:49:48.873Z,2.93
2023-04-16T00:50:48.897Z,2.93
2023-04-16T00:51:48.872Z,2.94
2023-04-16T00:52:48.878Z,2.96
2023-04-16T00:53:48.834Z,2.95
2023-04-16T00:54:48.846Z,2.93
2023-04-16T00:55:48.843Z,2.94
2023-04-16T00:56:48.822Z,2.92
2023-04-16T00:57:48.823Z,2.97
2023-04-16T00:58:48.776Z,2.94
2023-04-16T00:59:48.771Z,2.94
2023-04-16T01:00:48.758Z,2.95
2023-04-16T01:01:48.833Z,2.94
2023-04-16T01:02:48.836Z,2.91
2023-04-16T01:03:48.809Z,2.94
2023-04-16T01:04:48.731Z,2.95
2023-04-16T01:05:48.721Z,2.92
2023-04-16T01:06:48.749Z,2.96
2023-04-16T01:07:48.696Z,2.92
2023-04-16T01:08:48.695Z,2.92
2023-04-16T01:09:48.692Z,2.88
2023-04-16T01:10:48.718Z,2.94
2023-04-16T01:11:48.710Z,3.02
2023-04-16T01:12:48.740Z,3.02
2023-04-16T01:13:48.775Z,3.06
2023-04-16T01:14:48.815Z,3.03
2023-04-16T01:15:48.845Z,3.04
2023-04-16T01:16:48.891Z,3.12
2023-04-16T01:17:48.965Z,3.16
2023-04-16T01:18:48.900Z,3.20
2023-04-16T01:19:48.926Z,3.23
2023-04-16T01:20:48.985Z,3.27
2023-04-16T01:21:49.077Z,3.33
2023-04-16T01:22:49.098Z,3.42
2023-04-16T01:23:49.136Z,3.51
2023-04-16T01:24:49.195Z,3.54
2023-04-16T01:25:49.232Z,3.56
2023-04-16T01:26:49.304Z,3.58
2023-04-16T01:27:49.300Z,3.63
2023-04-16T01:28:49.349Z,3.67
2023-04-16T01:29:49.395Z,3.70
2023-04-16T01:30:49.483Z,3.67
2023-04-16T01:31:49.577Z,3.72
2023-04-16T01:32:49.606Z,3.74
2023-04-16T01:33:49.599Z,3.80
2023-04-16T01:34:49.660Z,3.73
2023-04-16T01:35:49.667Z,3.76
2023-04-16T01:36:49.731Z,3.82
2023-04-16T01:37:49.766Z,3.83
2023-04-16T01:38:49.801Z,3.80
2023-04-16T01:39:49.878Z,3.80
2023-04-16T01:40:49.839Z,3.77
2023-04-16T01:41:49.901Z,3.71
2023-04-16T01:42:49.953Z,3.64
2023-04-16T01:43:50.117Z,3.63
2023-04-16T01:44:50.159Z,3.66
2023-04-16T01:45:50.085Z,3.64
2023-04-16T01:46:50.688Z,3.63
2023-04-16T01:47:51.023Z,3.64
2023-04-16T01:48:50.166Z,3.64
2023-04-16T01:49:50.133Z,3.66
2023-04-16T01:50:50.168Z,3.63
2023-04-16T01:51:50.220Z,3.64
2023-04-16T01:52:50.323Z,3.61
2023-04-16T01:53:50.294Z,3.64
2023-04-16T01:54:50.375Z,3.60
2023-04-16T01:55:50.340Z,3.61
2023-04-16T01:56:50.390Z,3.62
2023-04-16T01:57:50.397Z,3.70
2023-04-16T01:58:50.451Z,3.60
2023-04-16T01:59:50.474Z,3.65
2023-04-16T02:00:50.509Z,3.65
2023-04-16T02:01:50.631Z,3.61
2023-04-16T02:02:50.671Z,3.59
2023-04-16T02:03:50.726Z,3.64
2023-04-16T02:04:50.663Z,3.63
2023-04-16T02:05:50.708Z,3.55
2023-04-16T02:06:50.751Z,3.59
2023-04-16T02:07:50.790Z,3.60
2023-04-16T02:08:50.812Z,3.61
2023-04-16T02:09:50.838Z,3.65
2023-04-16T02:10:50.893Z,3.62
2023-04-16T02:11:50.932Z,3.65
2023-04-16T02:12:50.982Z,3.64
2023-04-16T02:13:50.988Z,3.65
2023-04-16T02:14:51.028Z,3.64
2023-04-16T02:15:51.060Z,3.64
2023-04-16T02:16:51.114Z,3.66
2023-04-16T02:17:51.178Z,3.67
2023-04-16T02:18:51.101Z,3.65
2023-04-16T02:19:51.139Z,3.63
2023-04-16T02:20:51.176Z,3.61
2023-04-16T02:21:51.205Z,3.64
2023-04-16T02:22:51.255Z,3.59
2023-04-16T02:23:51.290Z,3.64
2023-04-16T02:24:51.317Z,3.55
2023-04-16T02:25:51.343Z,3.65
2023-04-16T02:26:51.334Z,3.62
2023-04-16T02:27:51.377Z,3.61
2023-04-16T02:28:51.359Z,3.46
2023-04-16T02:29:51.396Z,3.56
2023-04-16T02:30:51.433Z,3.53
2023-04-16T02:31:51.508Z,3.49
2023-04-16T02:32:51.593Z,3.50
2023-04-16T02:33:51.605Z,3.48
2023-04-16T02:34:51.638Z,3.46
2023-04-16T02:35:51.680Z,3.43
2023-04-16T02:36:51.749Z,3.48
2023-04-16T02:37:51.786Z,3.51
2023-04-16T02:38:51.903Z,3.47
2023-04-16T02:39:51.886Z,3.43
2023-04-16T02:40:51.929Z,3.47
2023-04-16T02:41:51.961Z,3.41
2023-04-16T02:42:52.008Z,3.48
2023-04-16T02:43:52.001Z,3.48
2023-04-16T02:44:52.001Z,3.48
2023-04-16T02:45:52.024Z,3.48
2023-04-16T02:46:51.969Z,3.46
2023-04-16T02:47:51.996Z,3.45
2023-04-16T02:48:51.969Z,3.50
2023-04-16T02:49:51.940Z,3.45
2023-04-16T02:50:51.937Z,3.41
2023-04-16T02:51:51.940Z,3.48
2023-04-16T02:52:51.912Z,3.47
2023-04-16T02:53:51.919Z,3.39
2023-04-16T02:54:51.956Z,3.48
2023-04-16T02:55:52.013Z,3.42
2023-04-16T02:56:52.049Z,3.39
2023-04-16T02:57:52.121Z,3.37
2023-04-16T02:58:52.151Z,3.40
2023-04-16T02:59:52.206Z,3.43
2023-04-16T03:00:52.241Z,3.34
2023-04-16T03:01:52.362Z,3.39
2023-04-16T03:02:52.385Z,3.40
2023-04-16T03:03:52.326Z,3.36
2023-04-16T03:04:52.360Z,3.32
2023-04-16T03:05:52.411Z,3.40
2023-04-16T03:06:52.442Z,3.34
2023-04-16T03:07:52.447Z,3.29
2023-04-16T03:08:52.478Z,3.20
2023-04-16T03:09:52.533Z,3.23
2023-04-16T03:10:52.531Z,3.18
2023-04-16T03:11:52.557Z,3.23
2023-04-16T03:12:52.594Z,3.15
2023-04-16T03:13:52.694Z,3.17
2023-04-16T03:14:52.714Z,3.09
2023-04-16T03:15:52.766Z,3.08
2023-04-16T03:16:52.767Z,3.10
2023-04-16T03:17:52.807Z,3.10
2023-04-16T03:18:52.837Z,3.07
2023-04-16T03:19:52.842Z,3.06
2023-04-16T03:20:52.865Z,3.05
2023-04-16T03:21:52.881Z,3.07
2023-04-16T03:22:52.914Z,3.01
2023-04-16T03:23:52.952Z,3.00
2023-04-16T03:24:52.984Z,2.98
2023-04-16T03:25:52.992Z,2.97
2023-04-16T03:26:52.983Z,2.94
2023-04-16T03:27:53.005Z,2.93
2023-04-16T03:28:53.025Z,2.94
2023-04-16T03:29:53.054Z,2.90
2023-04-16T03:30:53.164Z,2.90
2023-04-16T03:31:53.126Z,2.88
2023-04-16T03:32:53.188Z,2.89
2023-04-16T03:33:53.232Z,2.92
2023-04-16T03:34:53.278Z,2.94
2023-04-16T03:35:53.322Z,2.89
2023-04-16T03:36:53.376Z,2.95
2023-04-16T03:37:53.445Z,2.89
2023-04-16T03:38:53.490Z,2.86
2023-04-16T03:39:53.554Z,2.91
2023-04-16T03:40:53.582Z,2.87
2023-04-16T03:41:53.634Z,2.83
2023-04-16T03:42:53.635Z,2.80
2023-04-16T03:43:53.685Z,2.83
2023-04-16T03:44:53.735Z,2.82
2023-04-16T03:45:53.784Z,2.83
2023-04-16T03:46:53.902Z,2.81
2023-04-16T03:47:53.884Z,2.82
2023-04-16T03:48:53.885Z,2.78
2023-04-16T03:49:53.921Z,2.76
2023-04-16T03:50:53.993Z,2.76
2023-04-16T03:51:53.987Z,2.84
2023-04-16T03:52:54.004Z,2.80
2023-04-16T03:53:54.021Z,2.79
2023-04-16T03:54:54.057Z,2.74
2023-04-16T03:55:54.097Z,2.75
2023-04-16T03:56:54.114Z,2.70
2023-04-16T03:57:54.116Z,2.70
2023-04-16T03:58:54.147Z,2.71
2023-04-16T03:59:54.150Z,2.68
2023-04-16T04:00:54.172Z,2.68
2023-04-16T04:01:54.255Z,2.68
2023-04-16T04:02:54.344Z,2.65
2023-04-16T04:03:54.388Z,2.64
2023-04-16T04:04:54.289Z,2.63
2023-04-16T04:05:54.274Z,2.61
2023-04-16T04:06:54.357Z,2.54
2023-04-16T04:07:54.352Z,2.60
2023-04-16T04:08:54.739Z,2.60
2023-04-16T04:09:54.440Z,2.56
2023-04-16T04:10:54.514Z,2.60
2023-04-16T04:11:54.527Z,2.59
2023-04-16T04:12:54.548Z,2.55
2023-04-16T04:13:54.573Z,2.59
2023-04-16T04:14:54.598Z,2.57
2023-04-16T04:15:54.717Z,2.56
2023-04-16T04:16:54.670Z,2.60
2023-04-16T04:17:54.703Z,2.59
2023-04-16T04:18:54.706Z,2.54
2023-04-16T04:20:55.690Z,2.52
2023-04-16T04:21:54.689Z,2.50
2023-04-16T04:22:54.685Z,2.07
2023-04-16T04:23:56.042Z,1.53
2023-04-16T04:24:54.672Z,1.26
2023-04-16T04:25:54.743Z,0.99
2023-04-16T04:26:54.676Z,0.81
2023-04-16T04:27:54.679Z,0.64
2023-04-16T04:28:54.672Z,0.55
2023-04-16T04:29:54.681Z,0.50
2023-04-16T04:30:54.676Z,0.50
2023-04-16T04:31:54.726Z,0.50
2023-04-16T04:32:54.766Z,0.49
2023-04-16T04:33:54.701Z,0.50
2023-04-16T04:34:54.684Z,0.51
2023-04-16T04:35:54.686Z,0.52
2023-04-16T04:36:54.687Z,0.54
2023-04-16T04:37:54.693Z,0.59
2023-04-16T04:38:54.711Z,0.65
2023-04-16T04:39:54.715Z,0.68
2023-04-16T04:40:54.710Z,0.71
2023-04-16T04:41:54.698Z,0.75
2023-04-16T04:42:54.692Z,0.80
2023-04-16T04:43:54.705Z,0.83
2023-04-16T04:44:54.696Z,0.85
2023-04-16T04:45:54.763Z,0.92
2023-04-16T04:46:54.703Z,0.97
2023-04-16T04:47:54.769Z,1.04
2023-04-16T04:48:54.704Z,1.10
2023-04-16T04:49:54.697Z,1.14
2023-04-16T04:50:54.696Z,1.16
2023-04-16T04:51:54.694Z,1.21
2023-04-16T04:52:54.699Z,1.26
2023-04-16T04:53:54.737Z,1.33
2023-04-16T04:54:54.680Z,1.37
2023-04-16T04:55:57.595Z,1.39
2023-04-16T04:56:55.672Z,1.39
2023-04-16T04:57:54.672Z,1.40
2023-04-16T04:58:54.676Z,1.42
2023-04-16T04:59:54.690Z,1.48
2023-04-16T05:00:54.704Z,1.57
2023-04-16T05:01:54.687Z,1.65
2023-04-16T05:02:54.740Z,1.67
2023-04-16T05:03:54.733Z,1.67
2023-04-16T05:04:54.662Z,1.66
2023-04-16T05:05:54.650Z,1.42
2023-04-16T05:06:54.629Z,1.27
2023-04-16T05:07:54.634Z,1.00
2023-04-16T05:08:54.633Z,0.85
2023-04-16T05:09:54.685Z,0.69
2023-04-16T05:10:54.631Z,0.60
2023-04-16T05:11:54.620Z,0.54
2023-04-16T05:12:54.612Z,0.49
2023-04-16T05:13:54.630Z,0.50
2023-04-16T05:14:54.623Z,0.50
2023-04-16T05:15:54.629Z,0.51
2023-04-16T05:16:54.661Z,0.49
2023-04-16T05:17:54.689Z,0.50
2023-04-16T05:18:54.653Z,0.50
2023-04-16T05:19:54.609Z,0.51
2023-04-16T05:20:54.607Z,0.50
2023-04-16T05:21:54.624Z,0.50
2023-04-16T05:22:54.612Z,0.51
2023-04-16T05:23:54.626Z,0.50
2023-04-16T05:24:54.656Z,0.50
2023-04-16T05:25:54.709Z,0.50
2023-04-16T05:26:54.757Z,0.51
2023-04-16T05:27:54.832Z,0.50
2023-04-16T05:28:54.827Z,0.50
2023-04-16T05:29:54.879Z,0.52
2023-04-16T05:30:54.961Z,0.51
2023-04-16T05:31:54.996Z,0.50
2023-04-16T05:32:55.084Z,0.50
2023-04-16T05:33:55.114Z,0.50
2023-04-16T05:34:55.269Z,0.50
2023-04-16T05:35:55.172Z,0.51
2023-04-16T05:36:55.227Z,0.51
2023-04-16T05:37:55.280Z,0.51
2023-04-16T05:38:55.348Z,0.50
2023-04-16T05:39:55.416Z,0.51
2023-04-16T05:40:55.453Z,0.50
2023-04-16T05:41:55.509Z,0.50
2023-04-16T05:42:55.565Z,0.51
2023-04-16T05:43:55.612Z,0.51
2023-04-16T05:44:55.681Z,0.53
2023-04-16T05:45:55.776Z,0.55
2023-04-16T05:46:55.783Z,0.59
2023-04-16T05:47:55.846Z,0.68
2023-04-16T05:48:55.875Z,0.75
2023-04-16T05:49:55.936Z,0.80
2023-04-16T05:50:55.944Z,0.87
2023-04-16T05:51:56.038Z,0.98
2023-04-16T05:52:56.022Z,1.09
2023-04-16T05:53:56.058Z,1.16
2023-04-16T05:54:56.091Z,1.24
2023-04-16T05:55:56.130Z,1.37
2023-04-16T05:56:56.146Z,1.51
2023-04-16T05:57:56.167Z,1.61
2023-04-16T05:58:56.218Z,1.80
2023-04-16T05:59:56.279Z,1.89
2023-04-16T06:00:56.245Z,2.06
2023-04-16T06:01:56.279Z,2.30
2023-04-16T06:02:56.435Z,2.52
2023-04-16T06:03:56.356Z,2.69
2023-04-16T06:04:56.314Z,2.83
2023-04-16T06:05:56.570Z,3.03
2023-04-16T06:06:56.334Z,3.25
2023-04-16T06:07:56.348Z,3.45
2023-04-16T06:08:56.372Z,3.79
2023-04-16T06:09:56.383Z,4.04
2023-04-16T06:10:56.424Z,4.29
2023-04-16T06:11:56.401Z,4.43
2023-04-16T06:12:56.429Z,4.71
2023-04-16T06:13:56.433Z,4.92
2023-04-16T06:14:56.446Z,4.96
2023-04-16T06:15:56.499Z,5.36
2023-04-16T06:16:56.465Z,5.41
2023-04-16T06:17:57.219Z,5.71
2023-04-16T06:18:56.499Z,5.90
2023-04-16T06:19:56.515Z,6.13
2023-04-16T06:20:56.532Z,6.34
2023-04-16T06:21:56.527Z,6.56
2023-04-16T06:22:56.544Z,6.80
2023-04-16T06:23:56.562Z,6.99
2023-04-16T06:24:56.580Z,7.43
2023-04-16T06:25:56.579Z,7.39
2023-04-16T06:26:56.586Z,7.64
2023-04-16T06:27:56.592Z,7.73
2023-04-16T06:28:56.605Z,8.00
2023-04-16T06:29:56.610Z,8.28
2023-04-16T06:30:56.615Z,8.52
2023-04-16T06:31:56.673Z,8.68
2023-04-16T06:32:56.655Z,9.00
2023-04-16T06:33:56.642Z,9.26
2023-04-16T06:34:56.654Z,9.23
2023-04-16T06:35:56.648Z,9.89
2023-04-16T06:36:56.648Z,9.95
2023-04-16T06:37:56.657Z,9.98
2023-04-16T06:38:56.699Z,10.43
2023-04-16T06:39:56.696Z,10.53
2023-04-16T06:40:56.689Z,10.76
2023-04-16T06:41:56.670Z,10.98
2023-04-16T06:42:56.664Z,11.18
2023-04-16T06:43:56.681Z,11.33
2023-04-16T06:44:56.678Z,11.58
2023-04-16T06:45:56.687Z,11.76
2023-04-16T06:46:56.712Z,11.87
2023-04-16T06:47:56.706Z,12.02
2023-04-16T06:48:56.674Z,12.05
2023-04-16T06:49:56.676Z,12.09
2023-04-16T06:50:56.682Z,12.23
2023-04-16T06:51:56.679Z,12.58
2023-04-16T06:52:56.680Z,13.32
2023-04-16T06:53:56.676Z,13.23
2023-04-16T06:54:56.818Z,13.45
2023-04-16T06:55:56.654Z,13.48
2023-04-16T06:56:56.651Z,13.52
2023-04-16T06:57:56.653Z,13.61
2023-04-16T06:58:56.656Z,14.01
2023-04-16T06:59:56.649Z,13.88
2023-04-16T07:00:56.694Z,14.01
2023-04-16T07:01:56.676Z,14.06
2023-04-16T07:02:58.651Z,14.37
2023-04-16T07:03:56.819Z,14.58
2023-04-16T07:04:56.616Z,14.64
2023-04-16T07:05:56.608Z,14.74
2023-04-16T07:06:56.599Z,14.67
2023-04-16T07:07:56.599Z,14.99
2023-04-16T07:08:56.606Z,14.95
2023-04-16T07:09:56.592Z,15.10
2023-04-16T07:10:56.580Z,15.25
2023-04-16T07:11:56.576Z,15.36
2023-04-16T07:12:56.580Z,15.44
2023-04-16T07:13:56.562Z,15.46
2023-04-16T07:14:56.590Z,15.47
2023-04-16T07:15:56.582Z,15.66
2023-04-16T07:16:56.608Z,15.77
2023-04-16T07:17:56.608Z,16.35
2023-04-16T07:18:56.552Z,16.47
2023-04-16T07:19:56.540Z,16.35
2023-04-16T07:20:56.590Z,13.94
2023-04-16T07:21:56.530Z,10.16
2023-04-16T07:22:56.535Z,7.78
2023-04-16T07:23:56.536Z,6.83
2023-04-16T07:24:56.534Z,5.65
2023-04-16T07:25:56.528Z,4.81
2023-04-16T07:26:56.505Z,4.13
2023-04-16T07:27:56.488Z,3.57
2023-04-16T07:28:56.482Z,3.08
2023-04-16T07:29:56.490Z,2.86
2023-04-16T07:30:56.510Z,2.65
2023-04-16T07:31:56.515Z,2.30
2023-04-16T07:32:56.587Z,2.14
2023-04-16T07:33:56.477Z,1.96
2023-04-16T07:34:56.467Z,1.77
2023-04-16T07:35:56.473Z,1.63
2023-04-16T07:36:56.501Z,1.47
2023-04-16T07:37:56.466Z,1.33
2023-04-16T07:38:56.481Z,1.23
2023-04-16T07:39:57.472Z,1.20
2023-04-16T07:40:56.485Z,1.16
2023-04-16T07:41:56.468Z,1.22
2023-04-16T07:42:56.483Z,1.37
2023-04-16T07:43:56.473Z,1.48
2023-04-16T07:44:56.474Z,1.54
2023-04-16T07:45:56.495Z,1.65
2023-04-16T07:46:56.545Z,1.80
2023-04-16T07:47:56.615Z,1.98
2023-04-16T07:48:56.501Z,2.09
2023-04-16T07:49:56.483Z,2.10
2023-04-16T07:50:56.500Z,2.13
2023-04-16T07:51:56.486Z,2.25
2023-04-16T07:52:56.489Z,2.51
2023-04-16T07:53:56.487Z,2.95
2023-04-16T07:54:56.470Z,3.12
2023-04-16T07:55:56.488Z,3.30
2023-04-16T07:56:56.483Z,3.53
2023-04-16T07:57:56.461Z,3.77
2023-04-16T07:58:56.778Z,4.02
2023-04-16T07:59:56.436Z,4.17
2023-04-16T08:00:56.443Z,4.51
2023-04-16T08:01:56.499Z,4.64
2023-04-16T08:02:56.539Z,4.86
2023-04-16T08:03:56.564Z,5.04
2023-04-16T08:04:56.499Z,5.24
2023-04-16T08:05:56.406Z,5.58
2023-04-16T08:06:56.440Z,5.67
2023-04-16T08:07:56.379Z,5.86
2023-04-16T08:08:56.376Z,6.03
2023-04-16T08:09:56.375Z,6.21
2023-04-16T08:10:56.376Z,6.20
2023-04-16T08:11:56.372Z,5.79
2023-04-16T08:12:56.353Z,4.92
2023-04-16T08:13:56.351Z,3.80
2023-04-16T08:14:56.347Z,3.41
2023-04-16T08:15:56.371Z,2.83
2023-04-16T08:16:56.352Z,2.57
2023-04-16T08:17:56.380Z,2.39
2023-04-16T08:18:56.339Z,2.15
2023-04-16T08:19:56.328Z,1.92
2023-04-16T08:20:56.329Z,1.68
2023-04-16T08:21:56.330Z,1.59
2023-04-16T08:22:56.339Z,1.40
2023-04-16T08:23:56.331Z,1.31
2023-04-16T08:24:56.313Z,1.24
2023-04-16T08:25:56.309Z,1.11
2023-04-16T08:27:02.455Z,1.10
2023-04-16T08:27:57.305Z,1.06
2023-04-16T08:28:56.300Z,0.99
2023-04-16T08:29:56.310Z,0.93
2023-04-16T08:30:56.332Z,0.87
2023-04-16T08:31:56.351Z,0.81
2023-04-16T08:32:56.378Z,0.74
2023-04-16T08:33:56.331Z,0.74
2023-04-16T08:34:56.330Z,0.68
2023-04-16T08:35:56.324Z,0.68
2023-04-16T08:36:56.319Z,0.66
2023-04-16T08:37:56.300Z,0.66
2023-04-16T08:38:56.322Z,0.68
2023-04-16T08:39:56.356Z,0.68
2023-04-16T08:40:56.304Z,0.70
2023-04-16T08:41:56.296Z,0.75
2023-04-16T08:42:56.297Z,0.86
2023-04-16T08:43:56.291Z,1.05
2023-04-16T08:44:56.280Z,0.69
2023-04-16T08:45:56.293Z,0.74
2023-04-16T08:46:56.296Z,0.85
2023-04-16T08:47:56.293Z,1.06
2023-04-16T08:48:56.265Z,1.45
2023-04-16T08:49:57.885Z,1.62
2023-04-16T08:50:56.245Z,1.76
2023-04-16T08:51:56.237Z,1.88
2023-04-16T08:52:56.243Z,1.88
2023-04-16T08:53:56.228Z,1.92
2023-04-16T08:54:56.210Z,2.03
2023-04-16T08:55:56.209Z,2.23
2023-04-16T08:56:56.216Z,2.74
2023-04-16T08:57:56.225Z,2.89
2023-04-16T08:58:56.191Z,3.08
2023-04-16T08:59:56.165Z,3.26
2023-04-16T09:00:56.163Z,3.49
2023-04-16T09:01:56.252Z,3.76
2023-04-16T09:02:56.421Z,3.90
2023-04-16T09:03:56.296Z,4.07
2023-04-16T09:04:56.211Z,4.25
2023-04-16T09:05:56.093Z,4.43
2023-04-16T09:06:56.099Z,4.74
2023-04-16T09:07:56.084Z,4.97
2023-04-16T09:08:56.065Z,5.14
2023-04-16T09:09:56.121Z,5.65
2023-04-16T09:10:56.175Z,5.78
2023-04-16T09:11:56.309Z,6.13
2023-04-16T09:12:56.267Z,6.45
2023-04-16T09:13:56.309Z,6.78
2023-04-16T09:14:56.361Z,7.20
2023-04-16T09:15:56.423Z,7.32
2023-04-16T09:16:56.482Z,7.77
2023-04-16T09:17:56.587Z,8.20
2023-04-16T09:18:56.538Z,8.64
2023-04-16T09:19:56.575Z,9.00
2023-04-16T09:20:56.615Z,9.25
2023-04-16T09:21:56.651Z,9.73
2023-04-16T09:22:56.712Z,10.10
2023-04-16T09:23:56.736Z,10.54
2023-04-16T09:24:56.778Z,10.90
2023-04-16T09:25:56.807Z,11.16
2023-04-16T09:26:56.858Z,11.51
2023-04-16T09:27:56.903Z,12.43
2023-04-16T09:28:56.915Z,12.65
2023-04-16T09:29:56.936Z,13.10
2023-04-16T09:30:56.974Z,13.59
2023-04-16T09:31:57.042Z,14.12
2023-04-16T09:32:57.086Z,14.36
2023-04-16T09:33:57.073Z,15.00
2023-04-16T09:34:57.139Z,14.91
2023-04-16T09:35:57.121Z,15.31
2023-04-16T09:36:57.171Z,15.89
2023-04-16T09:37:57.237Z,16.07
2023-04-16T09:38:57.839Z,15.96
2023-04-16T09:39:57.252Z,16.57
2023-04-16T09:40:57.279Z,16.86
2023-04-16T09:41:57.327Z,17.11
2023-04-16T09:42:57.338Z,17.56
2023-04-16T09:43:57.370Z,17.66
2023-04-16T09:45:00.301Z,17.40
2023-04-16T09:45:57.420Z,17.43
2023-04-16T09:46:57.371Z,17.54
2023-04-16T09:47:57.362Z,17.71
2023-04-16T09:48:57.336Z,18.38
2023-04-16T09:49:57.306Z,18.18
2023-04-16T09:50:57.294Z,19.06
2023-04-16T09:51:57.274Z,19.29
2023-04-16T09:52:57.271Z,19.72
2023-04-16T09:53:57.239Z,19.87
2023-04-16T09:54:57.213Z,18.77
2023-04-16T09:55:57.206Z,18.81
2023-04-16T09:56:57.180Z,19.01
2023-04-16T09:57:57.156Z,19.43
2023-04-16T09:58:57.129Z,19.59
2023-04-16T09:59:57.125Z,21.19
2023-04-16T10:00:57.138Z,21.02
2023-04-16T10:02:12.264Z,20.62
2023-04-16T10:02:58.125Z,20.67
2023-04-16T10:03:57.092Z,20.73
2023-04-16T10:04:57.052Z,20.75
2023-04-16T10:05:57.022Z,21.42
2023-04-16T10:06:56.995Z,20.71
2023-04-16T10:07:56.961Z,22.47
2023-04-16T10:08:56.971Z,21.88
2023-04-16T10:09:56.915Z,22.26
2023-04-16T10:10:56.900Z,21.06
2023-04-16T10:11:56.861Z,20.93
2023-04-16T10:12:56.837Z,22.21
2023-04-16T10:13:56.832Z,22.21
2023-04-16T10:14:56.800Z,21.81
2023-04-16T10:15:56.772Z,22.29
2023-04-16T10:16:56.864Z,21.43
2023-04-16T10:17:56.841Z,22.32
2023-04-16T10:18:56.718Z,22.32
2023-04-16T10:19:56.687Z,22.45
2023-04-16T10:20:56.674Z,22.50
2023-04-16T10:21:56.669Z,22.51
2023-04-16T10:22:56.639Z,22.63
2023-04-16T10:23:56.630Z,23.22
2023-04-16T10:24:56.603Z,23.80
2023-04-16T10:25:57.606Z,23.23
2023-04-16T10:26:56.582Z,24.52
2023-04-16T10:27:56.539Z,24.80
2023-04-16T10:28:56.523Z,24.85
2023-04-16T10:29:56.490Z,25.07
2023-04-16T10:30:56.522Z,24.56
2023-04-16T10:31:56.447Z,25.69
2023-04-16T10:32:58.288Z,26.19
2023-04-16T10:33:56.397Z,26.08
2023-04-16T10:34:56.393Z,25.54
2023-04-16T10:36:07.122Z,26.47
2023-04-16T10:36:57.341Z,26.25
2023-04-16T10:37:56.319Z,26.53
2023-04-16T10:38:56.292Z,26.94
2023-04-16T10:39:56.260Z,26.67
2023-04-16T10:40:56.242Z,27.82
2023-04-16T10:41:56.239Z,28.80
2023-04-16T10:42:56.210Z,28.83
2023-04-16T10:43:56.177Z,29.02
2023-04-16T10:44:56.164Z,28.42
2023-04-16T10:45:56.186Z,28.91
2023-04-16T10:46:56.133Z,28.80
2023-04-16T10:47:56.159Z,28.87
2023-04-16T10:48:56.094Z,29.69
2023-04-16T10:49:56.065Z,30.58
2023-04-16T10:50:56.028Z,29.08
2023-04-16T10:51:56.006Z,29.52
2023-04-16T10:52:56.000Z,29.98
2023-04-16T10:53:55.956Z,29.59
2023-04-16T10:54:55.936Z,29.27
2023-04-16T10:55:55.908Z,29.29
2023-04-16T10:56:55.911Z,28.71
2023-04-16T10:57:55.875Z,30.08
2023-04-16T10:58:55.862Z,28.69
2023-04-16T10:59:55.845Z,28.96
2023-04-16T11:00:55.869Z,29.93
2023-04-16T11:01:56.030Z,28.07
2023-04-16T11:02:55.964Z,28.42
2023-04-16T11:03:56.049Z,27.90
2023-04-16T11:04:55.993Z,27.86
2023-04-16T11:05:55.934Z,27.66
2023-04-16T11:06:55.947Z,27.48
2023-04-16T11:07:55.959Z,26.66
2023-04-16T11:08:55.962Z,27.24
2023-04-16T11:09:56.047Z,26.44
2023-04-16T11:10:56.000Z,27.54
2023-04-16T11:11:56.031Z,26.59
2023-04-16T11:12:56.049Z,25.19
2023-04-16T11:13:56.046Z,25.55
2023-04-16T11:14:56.066Z,23.61
2023-04-16T11:15:56.125Z,24.95
2023-04-16T11:16:56.146Z,24.67
2023-04-16T11:17:56.147Z,24.07
2023-04-16T11:18:56.862Z,22.99
2023-04-16T11:19:56.154Z,22.47
2023-04-16T11:20:56.172Z,22.58
2023-04-16T11:21:56.325Z,21.24
2023-04-16T11:22:56.191Z,20.54
2023-04-16T11:23:56.198Z,20.51
2023-04-16T11:24:56.250Z,19.94
2023-04-16T11:25:56.248Z,19.73
2023-04-16T11:26:56.239Z,19.87
2023-04-16T11:27:56.276Z,20.53
2023-04-16T11:28:56.302Z,19.65
2023-04-16T11:29:56.251Z,19.71
2023-04-16T11:30:56.247Z,19.87
2023-04-16T11:31:56.208Z,20.24
2023-04-16T11:32:56.288Z,20.58
2023-04-16T11:33:56.170Z,20.73
2023-04-16T11:34:56.146Z,21.26
2023-04-16T11:35:56.140Z,21.27
2023-04-16T11:36:56.103Z,21.48
2023-04-16T11:37:56.117Z,21.10
2023-04-16T11:38:56.109Z,21.80
2023-04-16T11:39:56.061Z,21.80
2023-04-16T11:40:56.047Z,21.09
2023-04-16T11:41:56.104Z,21.71
2023-04-16T11:42:56.848Z,22.11
2023-04-16T11:43:55.999Z,22.60
2023-04-16T11:44:55.987Z,22.33
2023-04-16T11:45:55.981Z,22.61
2023-04-16T11:46:55.966Z,22.65
2023-04-16T11:47:56.002Z,22.74
2023-04-16T11:49:07.380Z,22.75
2023-04-16T11:49:56.908Z,22.66
2023-04-16T11:50:55.886Z,22.76
2023-04-16T11:51:55.862Z,23.21
2023-04-16T11:52:55.852Z,24.20
2023-04-16T11:53:55.840Z,24.03
2023-04-16T11:54:55.810Z,23.91
2023-04-16T11:55:55.809Z,24.50
2023-04-16T11:56:55.776Z,24.27
2023-04-16T11:57:55.749Z,24.54
2023-04-16T11:58:55.737Z,24.85
2023-04-16T12:00:02.532Z,24.40
2023-04-16T12:00:56.691Z,24.44
2023-04-16T12:01:55.870Z,24.65
2023-04-16T12:02:55.999Z,24.57
2023-04-16T12:03:55.901Z,25.69
2023-04-16T12:04:55.717Z,26.44
2023-04-16T12:05:55.586Z,26.40
2023-04-16T12:06:55.561Z,25.96
2023-04-16T12:07:55.944Z,26.16
2023-04-16T12:08:55.527Z,25.61
2023-04-16T12:09:55.530Z,25.86
2023-04-16T12:10:55.549Z,25.34
2023-04-16T12:11:55.478Z,26.23
2023-04-16T12:12:55.511Z,25.88
2023-04-16T12:13:55.434Z,25.26
2023-04-16T12:14:55.444Z,25.69
2023-04-16T12:15:55.404Z,26.07
2023-04-16T12:16:55.434Z,26.31
2023-04-16T12:17:55.424Z,26.51
2023-04-16T12:18:55.422Z,25.76
2023-04-16T12:19:55.431Z,25.68
2023-04-16T12:20:55.448Z,25.73
2023-04-16T12:21:55.409Z,25.93
2023-04-16T12:22:55.398Z,26.06
2023-04-16T12:23:55.373Z,26.40
2023-04-16T12:24:55.339Z,26.09
2023-04-16T12:25:55.331Z,26.40
2023-04-16T12:26:55.391Z,26.81
2023-04-16T12:27:55.359Z,27.02
2023-04-16T12:28:55.293Z,26.44
2023-04-16T12:29:55.306Z,26.03
2023-04-16T12:30:55.323Z,26.61
2023-04-16T12:31:55.307Z,26.25
2023-04-16T12:32:57.264Z,26.42
2023-04-16T12:33:55.196Z,27.87
2023-04-16T12:34:55.145Z,26.36
2023-04-16T12:35:55.138Z,26.38
2023-04-16T12:36:55.110Z,27.12
2023-04-16T12:37:55.110Z,26.42
2023-04-16T12:38:55.063Z,25.61
2023-04-16T12:39:55.061Z,27.05
2023-04-16T12:40:55.035Z,26.37
2023-04-16T12:41:55.019Z,26.43
2023-04-16T12:42:55.104Z,25.35
2023-04-16T12:43:55.038Z,25.39
2023-04-16T12:44:54.966Z,25.72
2023-04-16T12:45:54.947Z,25.86
2023-04-16T12:46:54.907Z,25.98
2023-04-16T12:47:54.910Z,25.39
2023-04-16T12:48:54.899Z,26.51
2023-04-16T12:49:54.876Z,25.82
2023-04-16T12:50:54.870Z,25.31
2023-04-16T12:51:54.847Z,25.53
2023-04-16T12:52:54.848Z,25.97
2023-04-16T12:53:54.834Z,27.75
2023-04-16T12:54:54.803Z,25.64
2023-04-16T12:55:54.784Z,26.76
2023-04-16T12:56:54.767Z,26.06
2023-04-16T12:57:54.769Z,25.49
2023-04-16T12:58:54.806Z,25.35
2023-04-16T12:59:54.806Z,25.90
2023-04-16T13:00:54.800Z,26.20
2023-04-16T13:01:54.857Z,25.62
2023-04-16T13:02:54.951Z,26.58
2023-04-16T13:03:55.152Z,25.12
2023-04-16T13:04:54.870Z,25.21
2023-04-16T13:05:54.841Z,25.18
2023-04-16T13:06:54.826Z,25.36
2023-04-16T13:07:54.799Z,25.66
2023-04-16T13:08:54.800Z,26.34
2023-04-16T13:09:54.757Z,25.51
2023-04-16T13:10:54.742Z,26.44